createdAt,value
2017-10-24T00:01:32.305Z,97938.13
2017-10-24T00:04:07.976Z,97941.67
2017-10-24T00:06:35.205Z,97936.53
2017-10-24T00:09:01.550Z,97939.08
2017-10-24T00:11:27.928Z,97945.84
2017-10-24T00:13:54.302Z,97943.15
2017-10-24T00:16:20.620Z,97942.98
2017-10-24T00:18:47.099Z,97941.00
2017-10-24T00:21:13.396Z,97936.39
2017-10-24T00:23:39.722Z,97934.64
2017-10-24T00:26:06.382Z,97947.52
2017-10-24T00:28:32.730Z,97944.51
2017-10-24T00:30:59.152Z,97943.08
2017-10-24T00:33:25.468Z,97937.63
2017-10-24T00:35:51.930Z,97934.66
2017-10-24T00:38:18.236Z,97927.59
2017-10-24T00:40:44.591Z,97922.61
2017-10-24T00:43:10.922Z,97924.11
2017-10-24T00:45:37.372Z,97926.98
2017-10-24T00:48:03.684Z,97923.92
2017-10-24T00:50:29.956Z,97925.37
2017-10-24T00:52:56.424Z,97922.69
2017-10-24T00:55:22.802Z,97927.05
2017-10-24T00:57:49.115Z,97923.29
2017-10-24T01:00:19.459Z,97913.33
2017-10-24T01:02:45.771Z,97921.83
2017-10-24T01:05:12.124Z,97921.30
2017-10-24T01:07:38.517Z,97922.75
2017-10-24T01:10:04.842Z,97927.83
2017-10-24T01:12:31.194Z,97934.72
2017-10-24T01:14:57.567Z,97921.59
2017-10-24T01:17:23.856Z,97919.65
2017-10-24T01:19:50.207Z,97923.16
2017-10-24T01:22:16.510Z,97911.72
2017-10-24T01:24:42.871Z,97911.91
2017-10-24T01:27:09.182Z,97910.24
2017-10-24T01:29:35.511Z,97908.68
2017-10-24T01:32:01.845Z,97902.23
2017-10-24T01:34:28.221Z,97885.89
2017-10-24T01:36:54.495Z,97880.20
2017-10-24T01:39:20.849Z,97883.26
2017-10-24T01:41:47.179Z,97883.91
2017-10-24T01:44:13.511Z,97879.16
2017-10-24T01:46:39.856Z,97870.13
2017-10-24T01:49:06.188Z,97869.75
2017-10-24T01:51:32.498Z,97867.92
2017-10-24T01:53:58.826Z,97856.23
2017-10-24T01:56:25.877Z,97858.13
2017-10-24T01:58:52.216Z,97863.94
2017-10-24T02:01:18.557Z,97868.95
2017-10-24T02:03:44.866Z,97880.14
2017-10-24T02:06:11.454Z,97871.45
2017-10-24T02:08:41.654Z,97864.81
2017-10-24T02:11:07.984Z,97873.95
2017-10-24T02:13:34.337Z,97888.78
2017-10-24T02:16:00.642Z,97895.39
2017-10-24T02:18:26.980Z,97906.95
2017-10-24T02:20:53.402Z,97915.71
2017-10-24T02:23:19.738Z,97917.89
2017-10-24T02:25:46.055Z,97913.84
2017-10-24T02:28:12.409Z,97915.28
2017-10-24T02:30:38.753Z,97919.19
2017-10-24T02:33:05.175Z,97920.42
2017-10-24T02:35:31.544Z,97915.71
2017-10-24T02:37:57.839Z,97901.72
2017-10-24T02:40:24.165Z,97892.98
2017-10-24T02:42:50.539Z,97885.06
2017-10-24T02:45:16.940Z,97888.88
2017-10-24T02:47:43.317Z,97896.52
2017-10-24T02:50:09.710Z,97896.05
2017-10-24T02:52:36.061Z,97898.78
2017-10-24T02:55:02.382Z,97907.60
2017-10-24T02:57:28.805Z,97912.06
2017-10-24T02:59:55.143Z,97918.77
2017-10-24T03:02:21.527Z,97927.17
2017-10-24T03:04:47.937Z,97943.15
2017-10-24T03:07:14.235Z,97950.14
2017-10-24T03:09:44.480Z,97954.94
2017-10-24T03:12:13.940Z,97945.56
2017-10-24T03:14:40.303Z,97942.37
2017-10-24T03:17:06.607Z,97943.70
2017-10-24T03:19:32.938Z,97948.19
2017-10-24T03:21:59.277Z,97934.66
2017-10-24T03:24:25.635Z,97928.34
2017-10-24T03:26:52.045Z,97917.45
2017-10-24T03:29:18.369Z,97922.88
2017-10-24T03:31:44.716Z,97911.73
2017-10-24T03:34:11.044Z,97906.89
2017-10-24T03:36:37.369Z,97910.63
2017-10-24T03:39:03.686Z,97903.80
2017-10-24T03:41:30.057Z,97903.30
2017-10-24T03:43:56.365Z,97901.31
2017-10-24T03:46:22.754Z,97908.09
2017-10-24T03:48:49.040Z,97913.30
2017-10-24T03:51:15.347Z,97919.75
2017-10-24T03:53:41.624Z,97926.27
2017-10-24T03:56:07.932Z,97934.80
2017-10-24T03:58:34.269Z,97941.79
2017-10-24T04:01:00.594Z,97947.16
2017-10-24T04:03:27.032Z,97949.07
2017-10-24T04:05:53.361Z,97958.27
2017-10-24T04:08:19.692Z,97959.63
2017-10-24T04:10:45.957Z,97965.38
2017-10-24T04:13:12.233Z,97976.06
2017-10-24T04:15:38.573Z,97970.64
2017-10-24T04:18:04.942Z,97975.14
2017-10-24T04:20:31.236Z,97973.70
2017-10-24T04:22:57.594Z,97976.16
2017-10-24T04:25:23.905Z,97982.77
2017-10-24T04:27:50.230Z,97988.36
2017-10-24T04:30:16.566Z,97990.91
2017-10-24T04:32:42.914Z,97994.75
2017-10-24T04:35:09.243Z,97994.19
2017-10-24T04:37:35.689Z,98006.31
2017-10-24T04:40:02.022Z,98003.44
2017-10-24T04:42:28.352Z,98002.08
2017-10-24T04:44:54.665Z,97996.66
2017-10-24T04:47:20.999Z,97989.08
2017-10-24T04:49:47.336Z,97992.98
2017-10-24T04:52:13.680Z,97995.14
2017-10-24T04:54:39.992Z,98005.09
2017-10-24T04:57:06.315Z,97998.28
2017-10-24T04:59:32.663Z,97995.07
2017-10-24T05:01:58.975Z,97995.96
2017-10-24T05:04:25.311Z,98001.59
2017-10-24T05:06:51.639Z,97998.63
2017-10-24T05:09:17.973Z,97995.56
2017-10-24T05:11:44.313Z,98001.86
2017-10-24T05:14:10.640Z,97999.62
2017-10-24T05:16:36.971Z,98000.05
2017-10-24T05:19:03.291Z,98005.05
2017-10-24T05:21:29.649Z,97999.11
2017-10-24T05:23:56.061Z,98006.57
2017-10-24T05:26:22.419Z,98010.16
2017-10-24T05:28:48.734Z,98020.67
2017-10-24T05:31:15.086Z,98022.05
2017-10-24T05:33:41.409Z,98025.36
2017-10-24T05:36:07.686Z,98020.86
2017-10-24T05:38:33.970Z,98023.46
2017-10-24T05:41:00.305Z,98016.70
2017-10-24T05:43:26.662Z,98019.01
2017-10-24T05:45:52.984Z,98017.88
2017-10-24T05:48:19.305Z,98015.23
2017-10-24T05:50:45.606Z,98014.43
2017-10-24T05:53:11.881Z,98022.86
2017-10-24T05:55:38.215Z,98028.53
2017-10-24T05:58:04.511Z,98016.87
2017-10-24T06:00:30.881Z,98011.55
2017-10-24T06:02:57.190Z,98018.54
2017-10-24T06:05:23.509Z,98020.86
2017-10-24T06:07:49.876Z,98009.66
2017-10-24T06:10:16.183Z,97999.63
2017-10-24T06:12:42.542Z,98006.77
2017-10-24T06:15:08.857Z,98013.99
2017-10-24T06:17:35.190Z,98025.42
2017-10-24T06:20:01.424Z,98031.08
2017-10-24T06:22:27.755Z,98030.72
2017-10-24T06:24:54.224Z,98036.14
2017-10-24T06:27:20.508Z,98045.88
2017-10-24T06:29:46.833Z,98030.37
2017-10-24T06:32:13.178Z,98027.75
2017-10-24T06:34:39.500Z,98020.24
2017-10-24T06:37:05.794Z,98002.48
2017-10-24T06:39:32.089Z,97996.22
2017-10-24T06:41:58.400Z,97994.81
2017-10-24T06:44:24.718Z,97991.34
2017-10-24T06:46:51.081Z,97982.09
2017-10-24T06:49:17.411Z,97990.28
2017-10-24T06:51:43.730Z,98013.00
2017-10-24T06:54:10.063Z,98036.98
2017-10-24T06:56:36.407Z,98033.23
2017-10-24T06:59:02.696Z,98025.95
2017-10-24T07:01:29.020Z,98022.13
2017-10-24T07:03:55.241Z,98029.95
2017-10-24T07:06:21.461Z,98038.89
2017-10-24T07:08:47.696Z,98049.67
2017-10-24T07:11:13.951Z,98062.08
2017-10-24T07:13:40.286Z,98057.19
2017-10-24T07:16:06.578Z,98041.14
2017-10-24T07:18:32.819Z,98022.33
2017-10-24T07:20:59.049Z,98010.22
2017-10-24T07:23:25.293Z,98005.41
2017-10-24T07:25:51.769Z,98007.83
2017-10-24T07:28:18.026Z,98020.86
2017-10-24T07:30:44.272Z,98024.81
2017-10-24T07:33:10.521Z,98032.98
2017-10-24T07:35:36.844Z,98035.55
2017-10-24T07:38:03.176Z,98059.60
2017-10-24T07:40:29.425Z,98071.45
2017-10-24T07:42:55.662Z,98083.80
2017-10-24T07:45:21.883Z,98083.13
2017-10-24T07:47:48.088Z,98086.42
2017-10-24T07:50:14.340Z,98096.91
2017-10-24T07:52:40.530Z,98105.67
2017-10-24T07:55:06.726Z,98097.29
2017-10-24T07:57:32.923Z,98099.47
2017-10-24T07:59:59.151Z,98090.34
2017-10-24T08:02:25.408Z,98076.12
2017-10-24T08:04:51.609Z,98064.47
2017-10-24T08:07:17.829Z,98079.81
2017-10-24T08:09:44.083Z,98082.13
2017-10-24T08:12:10.291Z,98088.88
2017-10-24T08:14:36.571Z,98090.67
2017-10-24T08:17:02.856Z,98084.54
2017-10-24T08:19:29.090Z,98085.23
2017-10-24T08:21:55.318Z,98088.50
2017-10-24T08:24:21.517Z,98094.30
2017-10-24T08:26:47.887Z,98098.67
2017-10-24T08:29:14.113Z,98110.75
2017-10-24T08:31:40.445Z,98114.02
2017-10-24T08:34:06.673Z,98130.03
2017-10-24T08:36:33.079Z,98129.42
2017-10-24T08:38:59.435Z,98135.42
2017-10-24T08:41:25.651Z,98148.33
2017-10-24T08:43:51.891Z,98160.83
2017-10-24T08:46:18.133Z,98164.50
2017-10-24T08:48:45.196Z,98168.88
2017-10-24T08:51:10.613Z,98158.41
2017-10-24T08:53:36.924Z,98157.10
2017-10-24T08:56:03.252Z,98172.28
2017-10-24T09:00:55.549Z,98165.25
2017-10-24T09:03:21.844Z,98171.31
2017-10-24T09:05:48.054Z,98176.30
2017-10-24T09:08:14.286Z,98174.40
2017-10-24T09:10:40.508Z,98167.30
2017-10-24T09:13:06.736Z,98164.86
2017-10-24T09:15:33.100Z,98166.88
2017-10-24T09:17:59.389Z,98177.09
2017-10-24T09:20:25.626Z,98172.12
2017-10-24T09:22:51.876Z,98171.22
2017-10-24T09:25:18.120Z,98166.00
2017-10-24T09:27:44.441Z,98162.16
2017-10-24T09:30:10.792Z,98148.56
2017-10-24T09:32:37.099Z,98151.03
2017-10-24T09:35:03.339Z,98144.58
2017-10-24T09:37:29.558Z,98137.52
2017-10-24T09:39:55.901Z,98142.98
2017-10-24T09:42:22.171Z,98146.06
2017-10-24T09:44:48.469Z,98148.20
2017-10-24T09:47:14.774Z,98154.42
2017-10-24T09:49:41.006Z,98149.68
2017-10-24T09:52:07.349Z,98147.72
2017-10-24T09:54:33.603Z,98151.42
2017-10-24T09:56:59.913Z,98152.95
2017-10-24T09:59:26.128Z,98161.66
2017-10-24T10:01:52.377Z,98157.67
2017-10-24T10:04:18.786Z,98151.58
2017-10-24T10:06:45.032Z,98148.98
2017-10-24T10:09:11.275Z,98155.73
2017-10-24T10:11:37.485Z,98161.34
2017-10-24T10:14:03.725Z,98166.95
2017-10-24T10:16:30.069Z,98154.70
2017-10-24T10:18:56.313Z,98160.04
2017-10-24T10:21:22.615Z,98176.83
2017-10-24T10:23:48.851Z,98184.14
2017-10-24T10:26:15.190Z,98189.25
2017-10-24T10:28:41.502Z,98193.46
2017-10-24T10:31:07.741Z,98203.51
2017-10-24T10:33:33.985Z,98202.92
2017-10-24T10:36:00.313Z,98208.38
2017-10-24T10:38:26.518Z,98215.67
2017-10-24T10:40:52.852Z,98221.45
2017-10-24T10:43:19.081Z,98219.16
2017-10-24T10:45:45.353Z,98224.83
2017-10-24T10:48:11.652Z,98215.42
2017-10-24T10:50:37.953Z,98205.85
2017-10-24T10:53:04.235Z,98208.38
2017-10-24T10:55:30.564Z,98199.93
2017-10-24T10:57:56.879Z,98216.63
2017-10-24T11:00:23.219Z,98214.02
2017-10-24T11:02:49.424Z,98222.41
2017-10-24T11:05:15.653Z,98220.80
2017-10-24T11:07:41.948Z,98225.78
2017-10-24T11:10:08.239Z,98231.86
2017-10-24T11:12:34.561Z,98243.52
2017-10-24T11:15:08.575Z,98242.94
2017-10-24T11:17:34.804Z,98246.17
2017-10-24T11:20:01.014Z,98236.64
2017-10-24T11:22:27.232Z,98238.84
2017-10-24T11:24:53.434Z,98240.86
2017-10-24T11:27:19.614Z,98241.25
2017-10-24T11:29:45.863Z,98254.83
2017-10-24T11:32:12.083Z,98252.44
2017-10-24T11:34:38.294Z,98260.98
2017-10-24T11:37:04.507Z,98260.40
2017-10-24T11:39:30.700Z,98261.89
2017-10-24T11:41:56.935Z,98262.52
2017-10-24T11:44:23.139Z,98273.53
2017-10-24T11:46:49.366Z,98272.80
2017-10-24T11:49:15.581Z,98271.01
2017-10-24T11:51:41.803Z,98268.58
2017-10-24T11:54:08.086Z,98269.81
2017-10-24T11:56:34.333Z,98289.12
2017-10-24T11:59:00.535Z,98290.91
2017-10-24T12:01:26.810Z,98291.42
2017-10-24T12:03:53.047Z,98279.02
2017-10-24T12:06:19.265Z,98279.36
2017-10-24T12:08:45.500Z,98291.36
2017-10-24T12:11:11.697Z,98303.05
2017-10-24T12:13:37.886Z,98311.25
2017-10-24T12:16:04.126Z,98312.99
2017-10-24T12:18:30.361Z,98310.16
2017-10-24T12:20:56.654Z,98317.37
2017-10-24T12:23:22.853Z,98329.08
2017-10-24T12:25:49.032Z,98319.81
2017-10-24T12:28:15.238Z,98323.59
2017-10-24T12:30:41.479Z,98322.25
2017-10-24T12:33:07.672Z,98334.64
2017-10-24T12:35:33.861Z,98330.63
2017-10-24T12:38:00.087Z,98327.47
2017-10-24T12:40:26.299Z,98314.17
2017-10-24T12:42:52.531Z,98311.93
2017-10-24T12:45:18.759Z,98319.73
2017-10-24T12:47:45.004Z,98326.75
2017-10-24T12:50:11.208Z,98325.64
2017-10-24T12:52:37.463Z,98322.94
2017-10-24T12:55:03.769Z,98322.55
2017-10-24T12:57:30.008Z,98333.19
2017-10-24T12:59:56.248Z,98324.58
2017-10-24T13:02:22.476Z,98329.66
2017-10-24T13:04:48.722Z,98339.38
2017-10-24T13:07:15.119Z,98331.09
2017-10-24T13:09:41.376Z,98331.14
2017-10-24T13:12:07.606Z,98337.53
2017-10-24T13:14:33.947Z,98343.28
2017-10-24T13:17:00.201Z,98345.09
2017-10-24T13:19:26.498Z,98349.92
2017-10-24T13:21:52.834Z,98354.22
2017-10-24T13:24:19.052Z,98357.83
2017-10-24T13:26:45.299Z,98361.40
2017-10-24T13:29:11.507Z,98366.52
2017-10-24T13:31:37.743Z,98374.01
2017-10-24T13:34:04.133Z,98373.00
2017-10-24T13:36:30.421Z,98368.75
2017-10-24T13:38:56.627Z,98359.97
2017-10-24T13:41:22.868Z,98355.09
2017-10-24T13:43:49.111Z,98355.75
2017-10-24T13:46:15.433Z,98366.47
2017-10-24T13:48:41.682Z,98362.37
2017-10-24T13:51:08.007Z,98363.72
2017-10-24T13:53:34.238Z,98366.48
2017-10-24T13:56:00.438Z,98373.06
2017-10-24T13:58:26.788Z,98372.17
2017-10-24T14:00:53.037Z,98368.78
2017-10-24T14:03:19.386Z,98372.25
2017-10-24T14:05:45.671Z,98369.41
2017-10-24T14:08:11.929Z,98380.30
2017-10-24T14:10:38.264Z,98377.70
2017-10-24T14:13:04.604Z,98385.22
2017-10-24T14:15:30.919Z,98393.34
2017-10-24T14:17:57.144Z,98411.95
2017-10-24T14:20:23.466Z,98418.36
2017-10-24T14:22:49.887Z,98414.89
2017-10-24T14:25:16.228Z,98425.44
2017-10-24T14:27:42.473Z,98438.41
2017-10-24T14:30:08.789Z,98440.10
2017-10-24T14:32:35.026Z,98444.00
2017-10-24T14:35:01.381Z,98446.37
2017-10-24T14:37:27.705Z,98457.21
2017-10-24T14:39:53.954Z,98461.14
2017-10-24T14:42:20.178Z,98456.73
2017-10-24T14:44:46.490Z,98463.56
2017-10-24T14:47:12.845Z,98474.63
2017-10-24T14:49:39.158Z,98486.94
2017-10-24T14:52:05.483Z,98495.25
2017-10-24T14:54:31.702Z,98498.05
2017-10-24T14:56:57.964Z,98509.83
2017-10-24T14:59:24.282Z,98510.73
2017-10-24T15:01:50.535Z,98515.84
2017-10-24T15:04:17.338Z,98522.94
2017-10-24T15:06:43.654Z,98520.73
2017-10-24T15:09:09.925Z,98524.95
2017-10-24T15:11:36.159Z,98524.01
2017-10-24T15:14:02.475Z,98515.95
2017-10-24T15:16:28.833Z,98519.27
2017-10-24T15:18:55.157Z,98514.20
2017-10-24T15:21:21.368Z,98509.22
2017-10-24T15:23:47.694Z,98517.53
2017-10-24T15:26:13.942Z,98527.02
2017-10-24T15:28:40.260Z,98532.29
2017-10-24T15:31:06.473Z,98547.64
2017-10-24T15:33:32.690Z,98542.20
2017-10-24T15:35:58.936Z,98543.48
2017-10-24T15:38:25.184Z,98549.89
2017-10-24T15:40:51.572Z,98562.66
2017-10-24T15:43:17.850Z,98570.46
2017-10-24T15:45:44.214Z,98577.66
2017-10-24T15:48:10.519Z,98580.30
2017-10-24T15:50:36.835Z,98590.25
2017-10-24T15:53:03.068Z,98594.11
2017-10-24T15:55:29.321Z,98611.59
2017-10-24T15:57:55.653Z,98620.11
2017-10-24T16:00:21.959Z,98625.11
2017-10-24T16:02:48.172Z,98635.12
2017-10-24T16:05:14.416Z,98643.20
2017-10-24T16:07:40.837Z,98649.63
2017-10-24T16:10:07.189Z,98656.01
2017-10-24T16:12:33.569Z,98663.56
2017-10-24T16:14:59.858Z,98666.36
2017-10-24T16:17:26.148Z,98673.58
2017-10-24T16:19:52.404Z,98671.14
2017-10-24T16:22:18.676Z,98680.77
2017-10-24T16:24:45.832Z,98679.88
2017-10-24T16:27:12.233Z,98674.54
2017-10-24T16:29:41.098Z,98677.14
2017-10-24T16:32:13.686Z,98684.00
2017-10-24T16:34:42.583Z,98682.58
2017-10-24T16:37:08.937Z,98676.37
2017-10-24T16:39:35.264Z,98672.81
2017-10-24T16:42:02.541Z,98684.98
2017-10-24T16:44:28.870Z,98685.56
2017-10-24T16:46:55.261Z,98694.59
2017-10-24T16:49:21.623Z,98699.28
2017-10-24T16:51:47.852Z,98693.45
2017-10-24T16:54:14.105Z,98698.66
2017-10-24T16:56:41.678Z,98703.81
2017-10-24T16:59:11.629Z,98714.05
2017-10-24T17:01:40.395Z,98717.34
2017-10-24T17:04:06.728Z,98722.65
2017-10-24T17:06:33.007Z,98722.38
2017-10-24T17:08:59.220Z,98720.17
2017-10-24T17:11:25.466Z,98726.29
2017-10-24T17:13:51.820Z,98729.23
2017-10-24T17:16:18.133Z,98738.27
2017-10-24T17:18:44.468Z,98746.98
2017-10-24T17:21:10.804Z,98748.46
2017-10-24T17:23:37.793Z,98752.19
2017-10-24T17:26:04.473Z,98754.23
2017-10-24T17:28:30.698Z,98745.75
2017-10-24T17:30:56.934Z,98759.67
2017-10-24T17:33:23.192Z,98763.42
2017-10-24T17:35:49.497Z,98766.56
2017-10-24T17:38:15.830Z,98766.11
2017-10-24T17:40:42.055Z,98772.58
2017-10-24T17:43:08.299Z,98776.77
2017-10-24T17:45:34.529Z,98786.26
2017-10-24T17:48:01.100Z,98788.73
2017-10-24T17:50:27.412Z,98791.73
2017-10-24T17:52:53.724Z,98796.92
2017-10-24T17:55:20.151Z,98798.32
2017-10-24T17:57:46.390Z,98800.58
2017-10-24T18:00:12.596Z,98797.05
2017-10-24T18:02:38.951Z,98796.66
2017-10-24T18:05:05.172Z,98792.70
2017-10-24T18:07:31.398Z,98786.77
2017-10-24T18:09:57.634Z,98783.27
2017-10-24T18:12:23.871Z,98783.39
2017-10-24T18:14:50.210Z,98787.66
2017-10-24T18:17:17.110Z,98787.17
2017-10-24T18:19:43.318Z,98799.34
2017-10-24T18:22:09.698Z,98809.02
2017-10-24T18:24:35.908Z,98817.16
2017-10-24T18:27:02.155Z,98830.31
2017-10-24T18:29:28.440Z,98829.03
2017-10-24T18:31:54.717Z,98832.33
2017-10-24T18:34:21.037Z,98834.39
2017-10-24T18:36:47.317Z,98841.25
2017-10-24T18:39:13.614Z,98855.09
2017-10-24T18:41:39.880Z,98864.05
2017-10-24T18:44:06.191Z,98872.70
2017-10-24T18:46:32.475Z,98884.53
2017-10-24T18:48:58.893Z,98885.93
2017-10-24T18:51:25.194Z,98899.35
2017-10-24T18:53:51.581Z,98892.02
2017-10-24T18:56:17.874Z,98888.02
2017-10-24T18:58:44.176Z,98895.23
2017-10-24T19:01:10.423Z,98906.95
2017-10-24T19:03:36.765Z,98914.58
2017-10-24T19:06:03.146Z,98917.59
2017-10-24T19:08:29.404Z,98923.95
2017-10-24T19:10:55.747Z,98918.34
2017-10-24T19:13:22.094Z,98934.10
2017-10-24T19:15:48.436Z,98934.17
2017-10-24T19:18:14.852Z,98952.50
2017-10-24T19:20:41.210Z,98961.08
2017-10-24T19:23:07.639Z,98970.67
2017-10-24T19:25:33.963Z,98974.71
2017-10-24T19:28:00.261Z,98985.30
2017-10-24T19:30:26.533Z,98989.26
2017-10-24T19:32:52.826Z,98988.12
2017-10-24T19:35:19.248Z,99001.08
2017-10-24T19:37:45.517Z,99004.13
2017-10-24T19:40:11.738Z,99019.64
2017-10-24T19:42:37.951Z,99016.31
2017-10-24T19:45:04.217Z,99016.31
2017-10-24T19:47:30.532Z,99007.98
2017-10-24T19:49:57.208Z,99015.95
2017-10-24T19:52:23.489Z,99028.79
2017-10-24T19:54:49.815Z,99038.30
2017-10-24T19:57:16.027Z,99042.97
2017-10-24T19:59:42.388Z,99049.08
2017-10-24T20:02:08.584Z,99062.86
2017-10-24T20:04:34.838Z,99066.61
2017-10-24T20:07:01.182Z,99081.67
2017-10-24T20:09:27.515Z,99084.92
2017-10-24T20:11:53.870Z,99088.70
2017-10-24T20:14:20.156Z,99103.63
2017-10-24T20:16:46.349Z,99106.20
2017-10-24T20:19:12.589Z,99106.63
2017-10-24T20:21:38.841Z,99126.41
2017-10-24T20:24:05.103Z,99128.84
2017-10-24T20:26:31.418Z,99142.88
2017-10-24T20:28:57.924Z,99144.96
2017-10-24T20:31:24.200Z,99154.63
2017-10-24T20:33:50.548Z,99163.45
2017-10-24T20:36:16.853Z,99168.08
2017-10-24T20:38:43.091Z,99171.67
2017-10-24T20:41:09.418Z,99169.45
2017-10-24T20:43:35.721Z,99171.59
2017-10-24T20:46:01.968Z,99167.98
2017-10-24T20:48:28.180Z,99162.48
2017-10-24T20:50:54.405Z,99164.59
2017-10-24T20:53:20.622Z,99169.52
2017-10-24T20:55:46.890Z,99165.76
2017-10-24T20:58:13.137Z,99169.06
2017-10-24T21:00:39.448Z,99161.70
2017-10-24T21:03:05.681Z,99162.70
2017-10-24T21:05:31.894Z,99160.59
2017-10-24T21:07:58.238Z,99161.31
2017-10-24T21:10:24.460Z,99164.06
2017-10-24T21:12:50.705Z,99170.39
2017-10-24T21:15:16.928Z,99183.77
2017-10-24T21:17:43.145Z,99183.38
2017-10-24T21:20:09.484Z,99175.92
2017-10-24T21:22:35.726Z,99200.12
2017-10-24T21:25:01.957Z,99191.50
2017-10-24T21:27:28.184Z,99197.27
2017-10-24T21:29:54.403Z,99193.33
2017-10-24T21:32:20.732Z,99193.10
2017-10-24T21:34:46.979Z,99195.59
2017-10-24T21:37:13.190Z,99199.23
2017-10-24T21:39:39.407Z,99183.81
2017-10-24T21:42:05.672Z,99196.01
2017-10-24T21:44:31.973Z,99192.36
2017-10-24T21:46:58.212Z,99215.11
2017-10-24T21:49:24.449Z,99222.34
2017-10-24T21:51:50.825Z,99236.27
2017-10-24T21:54:17.111Z,99248.08
2017-10-24T21:56:43.446Z,99246.14
2017-10-24T21:59:09.649Z,99250.25
2017-10-24T22:01:35.905Z,99261.39
2017-10-24T22:04:02.145Z,99249.70
2017-10-24T22:06:28.382Z,99264.09
2017-10-24T22:08:54.704Z,99272.79
2017-10-24T22:11:20.936Z,99281.16
2017-10-24T22:13:47.148Z,99294.92
2017-10-24T22:16:13.436Z,99291.35
2017-10-24T22:18:39.730Z,99290.03
2017-10-24T22:21:06.053Z,99299.56
2017-10-24T22:23:32.294Z,99295.59
2017-10-24T22:25:58.599Z,99304.30
2017-10-24T22:28:24.829Z,99308.88
2017-10-24T22:30:51.071Z,99317.23
2017-10-24T22:33:17.379Z,99327.12
2017-10-24T22:35:43.635Z,99333.52
2017-10-24T22:38:09.853Z,99330.20
2017-10-24T22:40:36.083Z,99341.81
2017-10-24T22:43:02.310Z,99344.17
2017-10-24T22:45:28.644Z,99345.45
2017-10-24T22:47:54.870Z,99349.11
2017-10-24T22:50:21.097Z,99351.89
2017-10-24T22:52:47.319Z,99346.19
2017-10-24T22:55:13.555Z,99352.11
2017-10-24T22:57:39.909Z,99353.66
2017-10-24T23:00:06.120Z,99344.09
2017-10-24T23:02:32.345Z,99359.82
2017-10-24T23:04:58.599Z,99370.45
2017-10-24T23:07:24.819Z,99375.65
2017-10-24T23:09:51.149Z,99374.25
2017-10-24T23:12:17.389Z,99386.64
2017-10-24T23:14:43.621Z,99390.87
2017-10-24T23:17:09.842Z,99396.81
2017-10-24T23:19:36.057Z,99392.36
2017-10-24T23:22:02.308Z,99405.91
2017-10-24T23:24:28.537Z,99412.47
2017-10-24T23:26:54.751Z,99411.27
2017-10-24T23:29:20.986Z,99412.55
2017-10-24T23:31:47.204Z,99409.38
2017-10-24T23:34:13.443Z,99411.97
2017-10-24T23:36:39.683Z,99409.16
2017-10-24T23:39:05.902Z,99408.62
2017-10-24T23:41:32.129Z,99416.59
2017-10-24T23:43:58.356Z,99424.71
2017-10-24T23:46:24.586Z,99421.08
2017-10-24T23:48:50.806Z,99426.66
2017-10-24T23:51:17.084Z,99427.56
2017-10-24T23:53:43.391Z,99425.67
2017-10-24T23:56:09.628Z,99425.67
2017-10-24T23:58:35.946Z,99443.18
